Seymour, Missouri
Current Conditions -  °F | °C
As of 1:52 AM on Saturday 29 Nov 2014 (Local Time) from KSGF Reporting Station
Clear Clear  
Wind Chill: 41°   Ceiling: Unl
Heat Index: 46°   Visibility: 10mi
Dew Point: 39°   Wind: 12mph
Humidity: 76%   Direction: 160°SSE
Pressure: 29.82"   Gusts: NA
Location:  37.15°N, 92.77°W
Report Text: KSGF 290752Z AUTO 16010KT 10SM CLR 08/04 A2982 RMK AO2 SLP095 T00780039
Loading
Personal Weather Stations






























Interactive Weather Map New forecast layout! Learn more

10-Day Weather Forecast

Advertisements
Track Severe Weather on mobile